sensor_id;sensor_type;location;lat;lon;timestamp;P1;durP1;ratioP1;P2;durP2;ratioP2
69854;SDS011;57146;48.140;16.304;2023-11-21T00:00:48;3.05;;;0.15;;
69854;SDS011;57146;48.140;16.304;2023-11-21T00:03:16;2.93;;;0.00;;
69854;SDS011;57146;48.140;16.304;2023-11-21T00:05:43;3.00;;;0.00;;
69854;SDS011;57146;48.140;16.304;2023-11-21T00:08:10;3.47;;;0.10;;
69854;SDS011;57146;48.140;16.304;2023-11-21T00:10:41;2.30;;;0.03;;
69854;SDS011;57146;48.140;16.304;2023-11-21T00:13:08;3.72;;;0.10;;
69854;SDS011;57146;48.140;16.304;2023-11-21T00:15:35;2.83;;;0.00;;
69854;SDS011;57146;48.140;16.304;2023-11-21T00:18:04;3.42;;;0.10;;
69854;SDS011;57146;48.140;16.304;2023-11-21T00:20:31;2.83;;;0.00;;
69854;SDS011;57146;48.140;16.304;2023-11-21T00:22:58;4.75;;;0.10;;
69854;SDS011;57146;48.140;16.304;2023-11-21T00:25:25;3.88;;;0.20;;
69854;SDS011;57146;48.140;16.304;2023-11-21T00:27:52;5.33;;;0.30;;
69854;SDS011;57146;48.140;16.304;2023-11-21T00:30:20;6.00;;;0.30;;
69854;SDS011;57146;48.140;16.304;2023-11-21T00:32:47;5.22;;;0.20;;
69854;SDS011;57146;48.140;16.304;2023-11-21T00:35:15;4.35;;;0.20;;
69854;SDS011;57146;48.140;16.304;2023-11-21T00:37:42;4.55;;;0.13;;
69854;SDS011;57146;48.140;16.304;2023-11-21T00:40:09;3.83;;;0.20;;
69854;SDS011;57146;48.140;16.304;2023-11-21T00:42:37;4.03;;;0.10;;
69854;SDS011;57146;48.140;16.304;2023-11-21T00:45:04;5.93;;;0.17;;
69854;SDS011;57146;48.140;16.304;2023-11-21T00:47:31;5.00;;;0.43;;
69854;SDS011;57146;48.140;16.304;2023-11-21T00:50:00;6.30;;;0.68;;
69854;SDS011;57146;48.140;16.304;2023-11-21T00:52:29;5.17;;;0.10;;
69854;SDS011;57146;48.140;16.304;2023-11-21T00:54:56;6.15;;;0.10;;
69854;SDS011;57146;48.140;16.304;2023-11-21T00:57:24;4.57;;;0.22;;
69854;SDS011;57146;48.140;16.304;2023-11-21T00:59:51;6.13;;;0.47;;
69854;SDS011;57146;48.140;16.304;2023-11-21T01:02:18;3.22;;;0.10;;
69854;SDS011;57146;48.140;16.304;2023-11-21T01:04:46;3.73;;;0.10;;
69854;SDS011;57146;48.140;16.304;2023-11-21T01:07:14;4.20;;;0.15;;
69854;SDS011;57146;48.140;16.304;2023-11-21T01:09:41;7.13;;;0.10;;
69854;SDS011;57146;48.140;16.304;2023-11-21T01:12:08;6.50;;;0.15;;
69854;SDS011;57146;48.140;16.304;2023-11-21T01:14:35;8.10;;;0.88;;
69854;SDS011;57146;48.140;16.304;2023-11-21T01:17:02;3.90;;;0.20;;
69854;SDS011;57146;48.140;16.304;2023-11-21T01:19:29;5.03;;;0.00;;
69854;SDS011;57146;48.140;16.304;2023-11-21T01:21:56;3.65;;;0.10;;
69854;SDS011;57146;48.140;16.304;2023-11-21T01:24:23;5.50;;;0.20;;
69854;SDS011;57146;48.140;16.304;2023-11-21T01:26:52;2.45;;;0.10;;
69854;SDS011;57146;48.140;16.304;2023-11-21T01:29:18;2.97;;;0.00;;
69854;SDS011;57146;48.140;16.304;2023-11-21T01:31:45;2.47;;;0.10;;
69854;SDS011;57146;48.140;16.304;2023-11-21T01:34:13;4.18;;;0.10;;
69854;SDS011;57146;48.140;16.304;2023-11-21T01:36:41;4.38;;;0.10;;
69854;SDS011;57146;48.140;16.304;2023-11-21T01:39:10;3.50;;;0.10;;
69854;SDS011;57146;48.140;16.304;2023-11-21T01:41:37;3.27;;;0.00;;
69854;SDS011;57146;48.140;16.304;2023-11-21T01:44:05;3.28;;;0.20;;
69854;SDS011;57146;48.140;16.304;2023-11-21T01:46:32;3.25;;;0.10;;
69854;SDS011;57146;48.140;16.304;2023-11-21T01:48:58;3.90;;;0.35;;
69854;SDS011;57146;48.140;16.304;2023-11-21T01:51:26;4.80;;;0.10;;
69854;SDS011;57146;48.140;16.304;2023-11-21T01:53:55;3.10;;;0.10;;
69854;SDS011;57146;48.140;16.304;2023-11-21T01:56:22;3.38;;;0.00;;
69854;SDS011;57146;48.140;16.304;2023-11-21T01:58:50;4.15;;;0.00;;
69854;SDS011;57146;48.140;16.304;2023-11-21T02:01:17;4.28;;;0.10;;
69854;SDS011;57146;48.140;16.304;2023-11-21T02:03:44;3.08;;;0.10;;
69854;SDS011;57146;48.140;16.304;2023-11-21T02:06:12;3.20;;;0.10;;
69854;SDS011;57146;48.140;16.304;2023-11-21T02:08:39;3.13;;;0.10;;
69854;SDS011;57146;48.140;16.304;2023-11-21T02:11:32;6.00;;;0.10;;
69854;SDS011;57146;48.140;16.304;2023-11-21T02:14:01;4.43;;;0.10;;
69854;SDS011;57146;48.140;16.304;2023-11-21T02:16:28;2.50;;;0.10;;
69854;SDS011;57146;48.140;16.304;2023-11-21T02:18:56;4.67;;;0.20;;
69854;SDS011;57146;48.140;16.304;2023-11-21T02:21:24;3.90;;;0.10;;
69854;SDS011;57146;48.140;16.304;2023-11-21T02:23:52;5.47;;;0.20;;
69854;SDS011;57146;48.140;16.304;2023-11-21T02:26:19;3.67;;;0.10;;
69854;SDS011;57146;48.140;16.304;2023-11-21T02:28:46;5.25;;;0.20;;
69854;SDS011;57146;48.140;16.304;2023-11-21T02:31:13;3.67;;;0.20;;
69854;SDS011;57146;48.140;16.304;2023-11-21T02:33:41;4.28;;;0.10;;
69854;SDS011;57146;48.140;16.304;2023-11-21T02:36:08;4.72;;;0.13;;
69854;SDS011;57146;48.140;16.304;2023-11-21T02:38:35;3.72;;;0.20;;
69854;SDS011;57146;48.140;16.304;2023-11-21T02:41:02;5.32;;;0.20;;
69854;SDS011;57146;48.140;16.304;2023-11-21T02:43:31;5.23;;;0.10;;
69854;SDS011;57146;48.140;16.304;2023-11-21T02:45:59;3.65;;;0.10;;
69854;SDS011;57146;48.140;16.304;2023-11-21T02:48:26;6.70;;;0.30;;
69854;SDS011;57146;48.140;16.304;2023-11-21T02:50:55;4.55;;;0.10;;
69854;SDS011;57146;48.140;16.304;2023-11-21T02:53:22;5.65;;;0.20;;
69854;SDS011;57146;48.140;16.304;2023-11-21T02:55:48;5.53;;;0.20;;
69854;SDS011;57146;48.140;16.304;2023-11-21T02:58:16;5.07;;;0.32;;
69854;SDS011;57146;48.140;16.304;2023-11-21T03:00:43;3.38;;;0.10;;
69854;SDS011;57146;48.140;16.304;2023-11-21T03:03:10;3.10;;;0.10;;
69854;SDS011;57146;48.140;16.304;2023-11-21T03:05:39;4.00;;;0.10;;
69854;SDS011;57146;48.140;16.304;2023-11-21T03:08:06;3.63;;;0.30;;
69854;SDS011;57146;48.140;16.304;2023-11-21T03:10:33;4.40;;;0.20;;
69854;SDS011;57146;48.140;16.304;2023-11-21T03:13:01;3.88;;;0.10;;
69854;SDS011;57146;48.140;16.304;2023-11-21T03:15:28;3.42;;;0.17;;
69854;SDS011;57146;48.140;16.304;2023-11-21T03:17:57;3.58;;;0.03;;
69854;SDS011;57146;48.140;16.304;2023-11-21T03:20:24;2.80;;;0.20;;
69854;SDS011;57146;48.140;16.304;2023-11-21T03:22:51;5.53;;;0.17;;
69854;SDS011;57146;48.140;16.304;2023-11-21T03:25:19;6.93;;;0.30;;
69854;SDS011;57146;48.140;16.304;2023-11-21T03:27:47;3.22;;;0.10;;
69854;SDS011;57146;48.140;16.304;2023-11-21T03:30:14;5.18;;;0.10;;
69854;SDS011;57146;48.140;16.304;2023-11-21T03:32:42;6.30;;;0.20;;
69854;SDS011;57146;48.140;16.304;2023-11-21T03:35:09;3.10;;;0.10;;
69854;SDS011;57146;48.140;16.304;2023-11-21T03:37:36;5.07;;;0.10;;
69854;SDS011;57146;48.140;16.304;2023-11-21T03:40:04;5.40;;;0.10;;
69854;SDS011;57146;48.140;16.304;2023-11-21T03:42:31;6.88;;;0.60;;
69854;SDS011;57146;48.140;16.304;2023-11-21T03:44:59;3.97;;;0.10;;
69854;SDS011;57146;48.140;16.304;2023-11-21T03:47:28;3.63;;;0.10;;
69854;SDS011;57146;48.140;16.304;2023-11-21T03:49:55;4.38;;;0.10;;
69854;SDS011;57146;48.140;16.304;2023-11-21T03:52:22;4.22;;;0.10;;
69854;SDS011;57146;48.140;16.304;2023-11-21T03:54:49;5.70;;;0.20;;
69854;SDS011;57146;48.140;16.304;2023-11-21T03:57:16;5.30;;;0.17;;
69854;SDS011;57146;48.140;16.304;2023-11-21T03:59:43;3.83;;;0.10;;
69854;SDS011;57146;48.140;16.304;2023-11-21T04:02:10;5.80;;;0.30;;
69854;SDS011;57146;48.140;16.304;2023-11-21T04:04:37;5.07;;;0.20;;
69854;SDS011;57146;48.140;16.304;2023-11-21T04:07:05;3.80;;;0.13;;
69854;SDS011;57146;48.140;16.304;2023-11-21T04:09:32;5.73;;;0.20;;
69854;SDS011;57146;48.140;16.304;2023-11-21T04:11:59;4.60;;;0.10;;
69854;SDS011;57146;48.140;16.304;2023-11-21T04:14:26;4.22;;;0.17;;
69854;SDS011;57146;48.140;16.304;2023-11-21T04:16:53;4.57;;;0.13;;
69854;SDS011;57146;48.140;16.304;2023-11-21T04:19:21;6.82;;;0.20;;
69854;SDS011;57146;48.140;16.304;2023-11-21T04:21:49;5.53;;;0.30;;
69854;SDS011;57146;48.140;16.304;2023-11-21T04:24:17;4.47;;;0.20;;
69854;SDS011;57146;48.140;16.304;2023-11-21T04:26:44;4.07;;;0.10;;
69854;SDS011;57146;48.140;16.304;2023-11-21T04:29:11;3.67;;;0.10;;
69854;SDS011;57146;48.140;16.304;2023-11-21T04:31:38;3.72;;;0.20;;
69854;SDS011;57146;48.140;16.304;2023-11-21T04:34:07;4.67;;;0.13;;
69854;SDS011;57146;48.140;16.304;2023-11-21T04:36:34;4.03;;;0.15;;
69854;SDS011;57146;48.140;16.304;2023-11-21T04:39:02;5.18;;;0.35;;
69854;SDS011;57146;48.140;16.304;2023-11-21T04:41:29;3.50;;;0.30;;
69854;SDS011;57146;48.140;16.304;2023-11-21T04:43:55;7.05;;;0.35;;
69854;SDS011;57146;48.140;16.304;2023-11-21T04:46:22;4.20;;;0.60;;
69854;SDS011;57146;48.140;16.304;2023-11-21T04:48:49;3.53;;;0.30;;
69854;SDS011;57146;48.140;16.304;2023-11-21T04:51:16;4.43;;;0.30;;
69854;SDS011;57146;48.140;16.304;2023-11-21T04:53:43;5.90;;;0.40;;
69854;SDS011;57146;48.140;16.304;2023-11-21T04:56:10;6.55;;;0.25;;
69854;SDS011;57146;48.140;16.304;2023-11-21T04:58:37;3.87;;;0.30;;
69854;SDS011;57146;48.140;16.304;2023-11-21T05:01:04;4.95;;;0.20;;
69854;SDS011;57146;48.140;16.304;2023-11-21T05:03:34;3.63;;;0.20;;
69854;SDS011;57146;48.140;16.304;2023-11-21T05:06:02;4.60;;;0.20;;
69854;SDS011;57146;48.140;16.304;2023-11-21T05:08:29;5.40;;;0.30;;
69854;SDS011;57146;48.140;16.304;2023-11-21T05:10:56;2.50;;;0.20;;
69854;SDS011;57146;48.140;16.304;2023-11-21T05:13:23;3.78;;;0.20;;
69854;SDS011;57146;48.140;16.304;2023-11-21T05:15:50;4.43;;;0.20;;
69854;SDS011;57146;48.140;16.304;2023-11-21T05:18:18;4.50;;;0.10;;
69854;SDS011;57146;48.140;16.304;2023-11-21T05:20:45;4.53;;;0.20;;
69854;SDS011;57146;48.140;16.304;2023-11-21T05:23:12;5.33;;;0.10;;
69854;SDS011;57146;48.140;16.304;2023-11-21T05:25:39;4.35;;;0.10;;
69854;SDS011;57146;48.140;16.304;2023-11-21T05:28:08;7.35;;;0.25;;
69854;SDS011;57146;48.140;16.304;2023-11-21T05:30:36;5.93;;;0.20;;
69854;SDS011;57146;48.140;16.304;2023-11-21T05:33:03;6.00;;;0.60;;
69854;SDS011;57146;48.140;16.304;2023-11-21T05:35:30;5.30;;;0.20;;
69854;SDS011;57146;48.140;16.304;2023-11-21T05:37:57;3.70;;;0.25;;
69854;SDS011;57146;48.140;16.304;2023-11-21T05:40:26;4.72;;;0.20;;
69854;SDS011;57146;48.140;16.304;2023-11-21T05:42:57;6.03;;;0.50;;
69854;SDS011;57146;48.140;16.304;2023-11-21T05:45:24;6.90;;;0.50;;
69854;SDS011;57146;48.140;16.304;2023-11-21T05:47:51;5.40;;;0.80;;
69854;SDS011;57146;48.140;16.304;2023-11-21T05:50:18;5.70;;;0.80;;
69854;SDS011;57146;48.140;16.304;2023-11-21T05:52:47;7.32;;;1.42;;
69854;SDS011;57146;48.140;16.304;2023-11-21T05:55:14;8.80;;;1.67;;
69854;SDS011;57146;48.140;16.304;2023-11-21T05:57:42;10.48;;;1.83;;
69854;SDS011;57146;48.140;16.304;2023-11-21T06:00:11;5.80;;;1.20;;
69854;SDS011;57146;48.140;16.304;2023-11-21T06:02:41;7.13;;;1.20;;
69854;SDS011;57146;48.140;16.304;2023-11-21T06:05:08;6.03;;;1.05;;
69854;SDS011;57146;48.140;16.304;2023-11-21T06:07:37;7.88;;;1.60;;
69854;SDS011;57146;48.140;16.304;2023-11-21T06:10:04;6.75;;;0.90;;
69854;SDS011;57146;48.140;16.304;2023-11-21T06:12:36;5.93;;;0.90;;
69854;SDS011;57146;48.140;16.304;2023-11-21T06:15:03;6.53;;;1.10;;
69854;SDS011;57146;48.140;16.304;2023-11-21T06:17:35;6.60;;;0.90;;
69854;SDS011;57146;48.140;16.304;2023-11-21T06:20:03;6.05;;;0.80;;
69854;SDS011;57146;48.140;16.304;2023-11-21T06:22:31;4.45;;;0.60;;
69854;SDS011;57146;48.140;16.304;2023-11-21T06:24:58;5.03;;;0.80;;
69854;SDS011;57146;48.140;16.304;2023-11-21T06:27:25;6.70;;;0.63;;
69854;SDS011;57146;48.140;16.304;2023-11-21T06:29:52;5.32;;;0.55;;
69854;SDS011;57146;48.140;16.304;2023-11-21T06:32:19;6.32;;;0.52;;
69854;SDS011;57146;48.140;16.304;2023-11-21T06:34:47;4.68;;;0.70;;
69854;SDS011;57146;48.140;16.304;2023-11-21T06:37:15;5.03;;;0.60;;
69854;SDS011;57146;48.140;16.304;2023-11-21T06:39:43;5.25;;;0.50;;
69854;SDS011;57146;48.140;16.304;2023-11-21T06:42:09;6.05;;;0.75;;
69854;SDS011;57146;48.140;16.304;2023-11-21T06:44:36;7.22;;;0.70;;
69854;SDS011;57146;48.140;16.304;2023-11-21T06:47:03;5.45;;;0.70;;
69854;SDS011;57146;48.140;16.304;2023-11-21T06:49:31;9.97;;;0.87;;
69854;SDS011;57146;48.140;16.304;2023-11-21T06:51:58;7.07;;;0.80;;
69854;SDS011;57146;48.140;16.304;2023-11-21T06:54:26;7.05;;;0.70;;
69854;SDS011;57146;48.140;16.304;2023-11-21T06:56:53;6.05;;;0.60;;
69854;SDS011;57146;48.140;16.304;2023-11-21T06:59:24;7.45;;;0.80;;
69854;SDS011;57146;48.140;16.304;2023-11-21T07:01:54;7.90;;;0.87;;
69854;SDS011;57146;48.140;16.304;2023-11-21T07:04:21;11.55;;;1.00;;
69854;SDS011;57146;48.140;16.304;2023-11-21T07:06:47;9.70;;;1.00;;
69854;SDS011;57146;48.140;16.304;2023-11-21T07:09:14;7.50;;;0.93;;
69854;SDS011;57146;48.140;16.304;2023-11-21T07:11:41;8.82;;;1.10;;
69854;SDS011;57146;48.140;16.304;2023-11-21T07:14:09;10.20;;;1.00;;
69854;SDS011;57146;48.140;16.304;2023-11-21T07:16:36;8.32;;;1.55;;
69854;SDS011;57146;48.140;16.304;2023-11-21T07:19:04;8.35;;;0.80;;
69854;SDS011;57146;48.140;16.304;2023-11-21T07:21:31;8.52;;;0.70;;
69854;SDS011;57146;48.140;16.304;2023-11-21T07:23:59;9.85;;;0.60;;
69854;SDS011;57146;48.140;16.304;2023-11-21T07:26:27;7.00;;;0.80;;
69854;SDS011;57146;48.140;16.304;2023-11-21T07:28:54;4.68;;;0.50;;
69854;SDS011;57146;48.140;16.304;2023-11-21T07:31:22;4.25;;;0.60;;
69854;SDS011;57146;48.140;16.304;2023-11-21T07:33:49;5.82;;;0.90;;
69854;SDS011;57146;48.140;16.304;2023-11-21T07:36:18;8.15;;;0.98;;
69854;SDS011;57146;48.140;16.304;2023-11-21T07:38:46;8.40;;;0.50;;
69854;SDS011;57146;48.140;16.304;2023-11-21T07:41:13;7.30;;;0.60;;
69854;SDS011;57146;48.140;16.304;2023-11-21T07:43:55;9.32;;;0.60;;
69854;SDS011;57146;48.140;16.304;2023-11-21T07:46:22;5.55;;;0.35;;
69854;SDS011;57146;48.140;16.304;2023-11-21T07:48:49;7.65;;;0.60;;
69854;SDS011;57146;48.140;16.304;2023-11-21T07:51:16;6.50;;;0.80;;
69854;SDS011;57146;48.140;16.304;2023-11-21T07:53:44;6.22;;;0.60;;
69854;SDS011;57146;48.140;16.304;2023-11-21T07:56:11;9.57;;;0.60;;
69854;SDS011;57146;48.140;16.304;2023-11-21T07:58:38;12.75;;;0.80;;
69854;SDS011;57146;48.140;16.304;2023-11-21T08:01:05;11.82;;;1.33;;
69854;SDS011;57146;48.140;16.304;2023-11-21T08:03:32;7.27;;;0.83;;
69854;SDS011;57146;48.140;16.304;2023-11-21T08:05:59;6.65;;;0.63;;
69854;SDS011;57146;48.140;16.304;2023-11-21T08:08:26;6.30;;;0.30;;
69854;SDS011;57146;48.140;16.304;2023-11-21T08:10:54;11.45;;;2.88;;
69854;SDS011;57146;48.140;16.304;2023-11-21T08:13:21;5.65;;;0.40;;
69854;SDS011;57146;48.140;16.304;2023-11-21T08:15:49;18.40;;;4.40;;
69854;SDS011;57146;48.140;16.304;2023-11-21T08:18:16;7.85;;;0.65;;
69854;SDS011;57146;48.140;16.304;2023-11-21T08:20:48;8.60;;;1.20;;
69854;SDS011;57146;48.140;16.304;2023-11-21T08:23:15;11.63;;;1.95;;
69854;SDS011;57146;48.140;16.304;2023-11-21T08:25:45;15.30;;;4.60;;
69854;SDS011;57146;48.140;16.304;2023-11-21T08:28:13;12.83;;;2.27;;
69854;SDS011;57146;48.140;16.304;2023-11-21T08:30:39;7.60;;;1.50;;
69854;SDS011;57146;48.140;16.304;2023-11-21T08:33:08;8.40;;;0.50;;
69854;SDS011;57146;48.140;16.304;2023-11-21T08:35:36;5.07;;;0.30;;
69854;SDS011;57146;48.140;16.304;2023-11-21T08:38:03;8.07;;;0.93;;
69854;SDS011;57146;48.140;16.304;2023-11-21T08:40:30;5.17;;;0.50;;
69854;SDS011;57146;48.140;16.304;2023-11-21T08:42:58;7.50;;;0.40;;
69854;SDS011;57146;48.140;16.304;2023-11-21T08:45:25;7.28;;;0.40;;
69854;SDS011;57146;48.140;16.304;2023-11-21T08:47:52;7.22;;;0.20;;
69854;SDS011;57146;48.140;16.304;2023-11-21T08:50:19;3.72;;;0.20;;
69854;SDS011;57146;48.140;16.304;2023-11-21T08:52:46;3.70;;;0.10;;
69854;SDS011;57146;48.140;16.304;2023-11-21T08:55:13;4.75;;;0.20;;
69854;SDS011;57146;48.140;16.304;2023-11-21T08:57:43;4.95;;;0.25;;
69854;SDS011;57146;48.140;16.304;2023-11-21T09:00:12;2.30;;;0.20;;
69854;SDS011;57146;48.140;16.304;2023-11-21T09:02:39;5.70;;;0.30;;
69854;SDS011;57146;48.140;16.304;2023-11-21T09:05:06;3.83;;;0.10;;
69854;SDS011;57146;48.140;16.304;2023-11-21T09:07:35;6.32;;;0.45;;
69854;SDS011;57146;48.140;16.304;2023-11-21T09:10:03;6.30;;;0.85;;
69854;SDS011;57146;48.140;16.304;2023-11-21T09:12:31;2.95;;;0.05;;
69854;SDS011;57146;48.140;16.304;2023-11-21T09:14:58;3.47;;;0.08;;
69854;SDS011;57146;48.140;16.304;2023-11-21T09:17:26;5.07;;;0.00;;
69854;SDS011;57146;48.140;16.304;2023-11-21T09:19:53;3.65;;;0.00;;
69854;SDS011;57146;48.140;16.304;2023-11-21T09:22:20;3.65;;;0.00;;
69854;SDS011;57146;48.140;16.304;2023-11-21T09:24:46;3.58;;;0.00;;
69854;SDS011;57146;48.140;16.304;2023-11-21T09:27:13;4.60;;;0.00;;
69854;SDS011;57146;48.140;16.304;2023-11-21T09:29:40;3.47;;;0.00;;
69854;SDS011;57146;48.140;16.304;2023-11-21T09:32:07;3.25;;;0.00;;
69854;SDS011;57146;48.140;16.304;2023-11-21T09:34:34;1.23;;;0.00;;
69854;SDS011;57146;48.140;16.304;2023-11-21T09:37:01;2.72;;;0.00;;
69854;SDS011;57146;48.140;16.304;2023-11-21T09:39:28;2.50;;;0.03;;
69854;SDS011;57146;48.140;16.304;2023-11-21T09:41:59;4.60;;;0.10;;
69854;SDS011;57146;48.140;16.304;2023-11-21T09:44:35;2.95;;;0.10;;
69854;SDS011;57146;48.140;16.304;2023-11-21T09:47:09;2.10;;;0.15;;
69854;SDS011;57146;48.140;16.304;2023-11-21T09:49:41;3.10;;;0.10;;
69854;SDS011;57146;48.140;16.304;2023-11-21T09:52:17;2.35;;;0.05;;
69854;SDS011;57146;48.140;16.304;2023-11-21T09:54:55;3.37;;;0.00;;
69854;SDS011;57146;48.140;16.304;2023-11-21T09:57:23;2.17;;;0.00;;
69854;SDS011;57146;48.140;16.304;2023-11-21T09:59:51;3.40;;;0.10;;
69854;SDS011;57146;48.140;16.304;2023-11-21T10:02:20;4.53;;;0.50;;
69854;SDS011;57146;48.140;16.304;2023-11-21T10:04:49;9.82;;;3.25;;
69854;SDS011;57146;48.140;16.304;2023-11-21T10:07:16;11.93;;;3.57;;
69854;SDS011;57146;48.140;16.304;2023-11-21T10:09:45;5.47;;;0.70;;
69854;SDS011;57146;48.140;16.304;2023-11-21T10:12:14;3.75;;;0.13;;
69854;SDS011;57146;48.140;16.304;2023-11-21T10:14:42;5.95;;;1.00;;
69854;SDS011;57146;48.140;16.304;2023-11-21T10:17:15;4.95;;;0.63;;
69854;SDS011;57146;48.140;16.304;2023-11-21T10:19:46;5.20;;;0.10;;
69854;SDS011;57146;48.140;16.304;2023-11-21T10:22:14;6.85;;;0.55;;
69854;SDS011;57146;48.140;16.304;2023-11-21T10:24:42;17.20;;;5.55;;
69854;SDS011;57146;48.140;16.304;2023-11-21T10:27:19;12.25;;;3.25;;
69854;SDS011;57146;48.140;16.304;2023-11-21T10:29:46;11.55;;;2.95;;
69854;SDS011;57146;48.140;16.304;2023-11-21T10:32:13;5.97;;;0.80;;
69854;SDS011;57146;48.140;16.304;2023-11-21T10:34:40;6.05;;;0.40;;
69854;SDS011;57146;48.140;16.304;2023-11-21T10:37:11;3.80;;;0.10;;
69854;SDS011;57146;48.140;16.304;2023-11-21T10:39:39;2.75;;;0.00;;
69854;SDS011;57146;48.140;16.304;2023-11-21T10:42:08;4.97;;;0.30;;
69854;SDS011;57146;48.140;16.304;2023-11-21T10:44:35;7.17;;;0.30;;
69854;SDS011;57146;48.140;16.304;2023-11-21T10:47:02;10.40;;;2.40;;
69854;SDS011;57146;48.140;16.304;2023-11-21T10:49:29;4.82;;;0.57;;
69854;SDS011;57146;48.140;16.304;2023-11-21T10:51:58;7.85;;;0.88;;
69854;SDS011;57146;48.140;16.304;2023-11-21T10:54:25;5.05;;;0.45;;
69854;SDS011;57146;48.140;16.304;2023-11-21T10:56:59;6.93;;;0.90;;
69854;SDS011;57146;48.140;16.304;2023-11-21T10:59:29;8.45;;;0.38;;
69854;SDS011;57146;48.140;16.304;2023-11-21T11:01:59;3.60;;;0.00;;
69854;SDS011;57146;48.140;16.304;2023-11-21T11:04:35;3.22;;;0.10;;
69854;SDS011;57146;48.140;16.304;2023-11-21T11:07:03;2.22;;;0.00;;
69854;SDS011;57146;48.140;16.304;2023-11-21T11:09:34;2.43;;;0.00;;
69854;SDS011;57146;48.140;16.304;2023-11-21T11:12:02;2.83;;;0.10;;
69854;SDS011;57146;48.140;16.304;2023-11-21T11:14:31;0.88;;;0.00;;
69854;SDS011;57146;48.140;16.304;2023-11-21T11:16:58;2.42;;;0.00;;
69854;SDS011;57146;48.140;16.304;2023-11-21T11:19:27;2.60;;;0.00;;
69854;SDS011;57146;48.140;16.304;2023-11-21T11:27:20;1.73;;;0.00;;
69854;SDS011;57146;48.140;16.304;2023-11-21T11:33:11;1.00;;;0.00;;
69854;SDS011;57146;48.140;16.304;2023-11-21T11:38:57;0.88;;;0.00;;
69854;SDS011;57146;48.140;16.304;2023-11-21T11:41:31;1.52;;;0.00;;
69854;SDS011;57146;48.140;16.304;2023-11-21T11:43:58;1.65;;;0.00;;
69854;SDS011;57146;48.140;16.304;2023-11-21T11:46:39;2.22;;;0.00;;
69854;SDS011;57146;48.140;16.304;2023-11-21T11:49:08;2.30;;;0.00;;
69854;SDS011;57146;48.140;16.304;2023-11-21T11:51:35;3.13;;;0.20;;
69854;SDS011;57146;48.140;16.304;2023-11-21T11:54:03;2.83;;;0.13;;
69854;SDS011;57146;48.140;16.304;2023-11-21T11:56:30;12.70;;;4.13;;
69854;SDS011;57146;48.140;16.304;2023-11-21T11:58:59;7.50;;;1.75;;
69854;SDS011;57146;48.140;16.304;2023-11-21T12:01:28;4.53;;;0.20;;
69854;SDS011;57146;48.140;16.304;2023-11-21T12:06:52;2.30;;;0.00;;
69854;SDS011;57146;48.140;16.304;2023-11-21T12:09:20;2.75;;;0.00;;
69854;SDS011;57146;48.140;16.304;2023-11-21T12:11:49;2.15;;;0.08;;
69854;SDS011;57146;48.140;16.304;2023-11-21T12:14:16;2.10;;;0.00;;
69854;SDS011;57146;48.140;16.304;2023-11-21T12:16:43;2.08;;;0.03;;
69854;SDS011;57146;48.140;16.304;2023-11-21T12:19:13;3.60;;;0.00;;
69854;SDS011;57146;48.140;16.304;2023-11-21T12:21:40;4.15;;;0.57;;
69854;SDS011;57146;48.140;16.304;2023-11-21T12:24:07;6.55;;;0.10;;
69854;SDS011;57146;48.140;16.304;2023-11-21T12:26:35;2.77;;;0.00;;
69854;SDS011;57146;48.140;16.304;2023-11-21T12:29:02;1.52;;;0.10;;
69854;SDS011;57146;48.140;16.304;2023-11-21T12:31:29;1.52;;;0.00;;
69854;SDS011;57146;48.140;16.304;2023-11-21T12:33:56;2.63;;;0.08;;
69854;SDS011;57146;48.140;16.304;2023-11-21T12:36:23;3.35;;;0.00;;
69854;SDS011;57146;48.140;16.304;2023-11-21T12:38:51;3.87;;;0.20;;
69854;SDS011;57146;48.140;16.304;2023-11-21T12:41:17;3.13;;;0.08;;
69854;SDS011;57146;48.140;16.304;2023-11-21T12:43:44;2.63;;;0.00;;
69854;SDS011;57146;48.140;16.304;2023-11-21T12:46:11;3.33;;;0.10;;
69854;SDS011;57146;48.140;16.304;2023-11-21T12:48:38;3.97;;;0.10;;
69854;SDS011;57146;48.140;16.304;2023-11-21T12:51:10;3.60;;;0.10;;
69854;SDS011;57146;48.140;16.304;2023-11-21T12:53:38;5.55;;;0.30;;
69854;SDS011;57146;48.140;16.304;2023-11-21T12:56:15;5.50;;;0.60;;
69854;SDS011;57146;48.140;16.304;2023-11-21T12:58:43;6.07;;;0.43;;
69854;SDS011;57146;48.140;16.304;2023-11-21T13:01:12;2.85;;;0.08;;
69854;SDS011;57146;48.140;16.304;2023-11-21T13:03:40;2.33;;;0.03;;
69854;SDS011;57146;48.140;16.304;2023-11-21T13:06:07;3.30;;;0.00;;
69854;SDS011;57146;48.140;16.304;2023-11-21T13:08:34;4.57;;;0.10;;
69854;SDS011;57146;48.140;16.304;2023-11-21T13:11:01;2.50;;;0.05;;
69854;SDS011;57146;48.140;16.304;2023-11-21T13:13:28;2.97;;;0.08;;
69854;SDS011;57146;48.140;16.304;2023-11-21T13:15:56;4.07;;;0.10;;
69854;SDS011;57146;48.140;16.304;2023-11-21T13:18:26;1.90;;;0.00;;
69854;SDS011;57146;48.140;16.304;2023-11-21T13:20:55;3.38;;;0.20;;
69854;SDS011;57146;48.140;16.304;2023-11-21T13:23:23;4.88;;;0.50;;
69854;SDS011;57146;48.140;16.304;2023-11-21T13:25:51;6.38;;;0.57;;
69854;SDS011;57146;48.140;16.304;2023-11-21T13:28:33;2.90;;;0.20;;
69854;SDS011;57146;48.140;16.304;2023-11-21T13:31:06;2.28;;;0.00;;
69854;SDS011;57146;48.140;16.304;2023-11-21T13:33:33;2.33;;;0.10;;
69854;SDS011;57146;48.140;16.304;2023-11-21T13:36:00;2.88;;;0.00;;
69854;SDS011;57146;48.140;16.304;2023-11-21T13:38:30;3.70;;;0.00;;
69854;SDS011;57146;48.140;16.304;2023-11-21T13:40:58;2.30;;;0.00;;
69854;SDS011;57146;48.140;16.304;2023-11-21T13:43:25;2.92;;;0.00;;
69854;SDS011;57146;48.140;16.304;2023-11-21T13:45:52;2.90;;;0.10;;
69854;SDS011;57146;48.140;16.304;2023-11-21T13:48:20;5.18;;;0.10;;
69854;SDS011;57146;48.140;16.304;2023-11-21T13:50:46;3.35;;;0.32;;
69854;SDS011;57146;48.140;16.304;2023-11-21T13:53:13;3.23;;;0.00;;
69854;SDS011;57146;48.140;16.304;2023-11-21T13:55:40;3.20;;;0.25;;
69854;SDS011;57146;48.140;16.304;2023-11-21T13:58:07;2.17;;;0.03;;
69854;SDS011;57146;48.140;16.304;2023-11-21T14:00:34;4.47;;;0.10;;
69854;SDS011;57146;48.140;16.304;2023-11-21T14:03:01;4.32;;;0.10;;
69854;SDS011;57146;48.140;16.304;2023-11-21T14:05:28;2.27;;;0.00;;
69854;SDS011;57146;48.140;16.304;2023-11-21T14:07:55;3.53;;;0.10;;
69854;SDS011;57146;48.140;16.304;2023-11-21T14:10:22;4.85;;;0.15;;
69854;SDS011;57146;48.140;16.304;2023-11-21T14:12:49;4.43;;;0.20;;
69854;SDS011;57146;48.140;16.304;2023-11-21T14:15:16;2.40;;;0.10;;
69854;SDS011;57146;48.140;16.304;2023-11-21T14:17:43;3.50;;;0.10;;
69854;SDS011;57146;48.140;16.304;2023-11-21T14:20:11;2.45;;;0.03;;
69854;SDS011;57146;48.140;16.304;2023-11-21T14:22:38;5.63;;;1.02;;
69854;SDS011;57146;48.140;16.304;2023-11-21T14:25:05;6.40;;;0.30;;
69854;SDS011;57146;48.140;16.304;2023-11-21T14:27:32;5.00;;;0.17;;
69854;SDS011;57146;48.140;16.304;2023-11-21T14:30:00;2.77;;;0.10;;
69854;SDS011;57146;48.140;16.304;2023-11-21T14:32:27;3.67;;;0.10;;
69854;SDS011;57146;48.140;16.304;2023-11-21T14:34:54;5.10;;;0.50;;
69854;SDS011;57146;48.140;16.304;2023-11-21T14:37:21;3.88;;;0.30;;
69854;SDS011;57146;48.140;16.304;2023-11-21T14:39:48;3.75;;;0.00;;
69854;SDS011;57146;48.140;16.304;2023-11-21T14:42:15;2.87;;;0.30;;
69854;SDS011;57146;48.140;16.304;2023-11-21T14:44:42;1.70;;;0.00;;
69854;SDS011;57146;48.140;16.304;2023-11-21T14:47:10;6.55;;;0.57;;
69854;SDS011;57146;48.140;16.304;2023-11-21T14:49:37;7.30;;;0.60;;
69854;SDS011;57146;48.140;16.304;2023-11-21T14:52:04;9.32;;;0.60;;